createdAt,value
2018-05-07T00:01:46.479Z,12.50
2018-05-07T00:06:55.732Z,12.40
2018-05-07T00:09:23.455Z,12.40
2018-05-07T00:11:51.289Z,12.20
2018-05-07T00:14:20.719Z,12.10
2018-05-07T00:16:48.639Z,12.10
2018-05-07T00:19:31.734Z,12.10
2018-05-07T00:21:59.679Z,12.10
2018-05-07T00:24:28.505Z,11.90
2018-05-07T00:26:56.408Z,11.90
2018-05-07T00:29:24.261Z,11.90
2018-05-07T00:31:52.127Z,11.80
2018-05-07T00:34:19.961Z,11.70
2018-05-07T00:36:48.571Z,11.60
2018-05-07T00:39:17.154Z,11.50
2018-05-07T00:41:44.981Z,11.50
2018-05-07T00:44:13.705Z,11.60
2018-05-07T00:46:41.666Z,11.60
2018-05-07T00:49:09.732Z,11.60
2018-05-07T00:51:37.730Z,11.50
2018-05-07T00:54:05.570Z,11.60
2018-05-07T00:56:33.822Z,11.50
2018-05-07T00:59:01.816Z,11.40
2018-05-07T01:01:29.693Z,11.50
2018-05-07T01:03:57.512Z,11.40
2018-05-07T01:06:25.347Z,11.50
2018-05-07T01:08:53.218Z,11.30
2018-05-07T01:11:21.106Z,11.20
2018-05-07T01:13:50.205Z,11.10
2018-05-07T01:16:18.026Z,11.10
2018-05-07T01:18:45.973Z,11.10
2018-05-07T01:21:13.878Z,11.10
2018-05-07T01:23:41.781Z,11.10
2018-05-07T01:26:09.588Z,11.00
2018-05-07T01:28:37.447Z,10.90
2018-05-07T01:31:06.030Z,10.80
2018-05-07T01:33:33.979Z,10.80
2018-05-07T01:36:02.614Z,10.70
2018-05-07T01:38:30.475Z,10.70
2018-05-07T01:40:58.308Z,10.60
2018-05-07T01:43:26.912Z,10.40
2018-05-07T01:45:54.778Z,10.40
2018-05-07T01:48:22.609Z,10.30
2018-05-07T01:50:51.198Z,10.30
2018-05-07T01:53:21.665Z,10.30
2018-05-07T01:55:49.757Z,10.40
2018-05-07T01:58:17.714Z,10.20
2018-05-07T02:00:45.541Z,10.20
2018-05-07T02:03:13.561Z,10.30
2018-05-07T02:05:41.463Z,10.20
2018-05-07T02:08:10.056Z,10.30
2018-05-07T02:10:38.653Z,10.20
2018-05-07T02:13:06.485Z,10.20
2018-05-07T02:15:34.315Z,10.20
2018-05-07T02:18:02.384Z,10.20
2018-05-07T02:20:30.204Z,10.10
2018-05-07T02:22:58.066Z,10.00
2018-05-07T02:25:25.875Z,10.10
2018-05-07T02:27:53.736Z,10.10
2018-05-07T02:30:21.596Z,9.90
2018-05-07T02:36:32.779Z,9.80
2018-05-07T02:39:00.596Z,9.80
2018-05-07T02:41:28.389Z,9.80
2018-05-07T02:43:56.204Z,9.80
2018-05-07T02:46:24.017Z,9.60
2018-05-07T02:48:51.840Z,9.70
2018-05-07T02:51:19.672Z,9.60
2018-05-07T02:53:50.811Z,9.60
2018-05-07T02:56:19.391Z,9.70
2018-05-07T02:58:47.385Z,9.60
2018-05-07T03:01:15.212Z,9.70
2018-05-07T03:03:43.032Z,9.70
2018-05-07T03:06:10.917Z,9.60
2018-05-07T03:08:38.780Z,9.70
2018-05-07T03:11:06.584Z,9.70
2018-05-07T03:13:34.473Z,9.70
2018-05-07T03:16:03.145Z,9.60
2018-05-07T03:18:31.047Z,9.60
2018-05-07T03:20:58.928Z,9.50
2018-05-07T03:23:26.736Z,9.40
2018-05-07T03:25:54.532Z,9.40
2018-05-07T03:28:22.354Z,9.40
2018-05-07T03:30:50.266Z,9.40
2018-05-07T03:33:18.148Z,9.30
2018-05-07T03:35:45.989Z,9.20
2018-05-07T03:38:14.600Z,9.20
2018-05-07T03:40:42.482Z,9.20
2018-05-07T03:43:10.381Z,9.20
2018-05-07T03:45:38.319Z,9.20
2018-05-07T03:48:06.146Z,9.20
2018-05-07T03:50:33.984Z,9.20
2018-05-07T03:53:01.795Z,9.20
2018-05-07T03:55:29.886Z,9.20
2018-05-07T03:57:57.731Z,9.10
2018-05-07T04:00:26.337Z,9.10
2018-05-07T04:02:54.158Z,9.10
2018-05-07T04:05:22.787Z,9.10
2018-05-07T04:07:50.611Z,9.10
2018-05-07T04:10:19.211Z,9.20
2018-05-07T04:12:47.051Z,9.20
2018-05-07T04:15:15.623Z,9.20
2018-05-07T04:17:49.346Z,9.20
2018-05-07T04:20:23.823Z,9.00
2018-05-07T04:22:57.475Z,9.00
2018-05-07T04:25:26.059Z,9.10
2018-05-07T04:27:54.790Z,9.10
2018-05-07T04:30:22.880Z,9.10
2018-05-07T04:32:50.771Z,9.00
2018-05-07T04:35:18.640Z,9.10
2018-05-07T04:37:46.539Z,9.10
2018-05-07T04:40:14.357Z,9.10
2018-05-07T04:42:42.147Z,9.10
2018-05-07T04:45:10.850Z,9.10
2018-05-07T04:47:38.687Z,9.10
2018-05-07T04:50:06.632Z,9.10
2018-05-07T04:52:34.535Z,9.00
2018-05-07T04:55:03.301Z,9.10
2018-05-07T04:57:33.328Z,9.10
2018-05-07T05:00:02.080Z,9.30
2018-05-07T05:02:29.953Z,9.30
2018-05-07T05:04:57.774Z,9.50
2018-05-07T05:07:25.752Z,9.60
2018-05-07T05:09:54.418Z,9.80
2018-05-07T05:12:22.251Z,9.70
2018-05-07T05:17:17.225Z,10.10
2018-05-07T05:19:45.153Z,10.10
2018-05-07T05:22:12.987Z,10.30
2018-05-07T05:24:40.997Z,10.50
2018-05-07T05:27:09.101Z,10.60
2018-05-07T05:29:37.804Z,10.50
2018-05-07T05:32:06.407Z,10.60
2018-05-07T05:34:34.257Z,10.60
2018-05-07T05:37:02.849Z,11.00
2018-05-07T05:39:30.684Z,11.00
2018-05-07T05:41:59.304Z,11.30
2018-05-07T05:47:17.156Z,11.40
2018-05-07T05:49:45.178Z,11.60
2018-05-07T05:52:13.786Z,11.90
2018-05-07T05:54:41.600Z,11.90
2018-05-07T05:57:09.538Z,12.00
2018-05-07T05:59:37.376Z,12.00
2018-05-07T06:02:05.978Z,12.20
2018-05-07T06:04:34.582Z,12.30
2018-05-07T06:07:02.409Z,12.30
2018-05-07T06:09:30.260Z,12.50
2018-05-07T06:11:58.868Z,12.70
2018-05-07T06:14:27.535Z,12.90
2018-05-07T06:16:55.325Z,12.90
2018-05-07T06:19:23.926Z,13.30
2018-05-07T06:21:51.792Z,13.20
2018-05-07T06:24:20.377Z,13.30
2018-05-07T06:26:48.198Z,13.20
2018-05-07T06:29:16.053Z,13.40
2018-05-07T06:31:43.903Z,13.60
2018-05-07T06:36:07.477Z,13.90
2018-05-07T06:38:35.332Z,14.00
2018-05-07T06:41:03.238Z,14.20
2018-05-07T06:43:31.100Z,14.30
2018-05-07T06:45:58.956Z,14.50
2018-05-07T06:48:26.776Z,14.60
2018-05-07T06:50:55.883Z,14.90
2018-05-07T06:53:24.163Z,15.30
2018-05-07T06:55:52.446Z,15.60
2018-05-07T06:58:20.671Z,16.00
2018-05-07T07:00:48.923Z,16.40
2018-05-07T07:03:17.136Z,16.80
2018-05-07T07:05:46.110Z,19.20
2018-05-07T07:08:14.385Z,19.10
2018-05-07T07:10:42.784Z,20.00
2018-05-07T07:13:11.840Z,21.20
2018-05-07T07:15:40.054Z,21.10
2018-05-07T07:18:09.040Z,23.20
2018-05-07T07:20:37.275Z,23.20
2018-05-07T07:23:05.475Z,23.50
2018-05-07T07:25:33.804Z,25.40
2018-05-07T07:28:01.872Z,25.50
2018-05-07T07:30:29.678Z,24.10
2018-05-07T07:32:57.529Z,23.30
2018-05-07T07:35:25.417Z,24.30
2018-05-07T07:37:54.287Z,24.70
2018-05-07T07:40:22.631Z,24.70
2018-05-07T07:42:50.819Z,25.90
2018-05-07T07:45:19.010Z,25.20
2018-05-07T07:47:47.278Z,26.70
2018-05-07T07:50:15.489Z,29.10
2018-05-07T07:52:43.498Z,29.90
2018-05-07T07:57:53.771Z,29.10
2018-05-07T08:00:22.485Z,26.30
2018-05-07T08:02:50.318Z,26.20
2018-05-07T08:05:18.942Z,27.80
2018-05-07T08:07:46.803Z,27.70
2018-05-07T08:10:14.770Z,26.10
2018-05-07T08:12:42.674Z,28.50
2018-05-07T08:15:10.476Z,29.20
2018-05-07T08:17:38.542Z,29.90
2018-05-07T08:20:07.525Z,29.20
2018-05-07T08:22:36.706Z,29.10
2018-05-07T08:25:04.653Z,29.10
2018-05-07T08:27:32.523Z,29.60
2018-05-07T08:30:00.369Z,27.10
2018-05-07T08:42:01.269Z,27.80
2018-05-07T08:44:29.139Z,26.80
2018-05-07T08:46:56.958Z,26.10
2018-05-07T08:49:24.795Z,26.00
2018-05-07T08:51:52.641Z,27.00
2018-05-07T08:54:21.358Z,25.10
2018-05-07T08:56:49.988Z,24.00
2018-05-07T09:02:15.739Z,23.10
2018-05-07T09:04:43.541Z,23.10
2018-05-07T09:07:11.390Z,22.90
2018-05-07T09:09:39.236Z,23.30
2018-05-07T09:12:07.829Z,23.10
2018-05-07T09:14:35.772Z,23.10
2018-05-07T09:17:03.614Z,22.80
2018-05-07T09:19:31.650Z,22.60
2018-05-07T09:21:59.619Z,22.00
2018-05-07T09:24:27.487Z,21.80
2018-05-07T09:26:55.309Z,21.90
2018-05-07T09:29:23.916Z,22.30
2018-05-07T09:31:53.656Z,22.10
2018-05-07T09:34:21.505Z,22.00
2018-05-07T09:36:49.352Z,22.30
2018-05-07T09:39:18.140Z,22.20
2018-05-07T09:41:45.997Z,22.10
2018-05-07T09:44:14.636Z,21.90
2018-05-07T09:46:42.503Z,21.90
2018-05-07T09:49:10.310Z,22.00
2018-05-07T09:51:38.122Z,22.10
2018-05-07T09:54:05.952Z,22.40
2018-05-07T09:56:42.804Z,22.20
2018-05-07T09:59:10.642Z,22.20
2018-05-07T10:01:38.523Z,22.20
2018-05-07T10:04:06.355Z,22.30
2018-05-07T10:06:34.238Z,22.60
2018-05-07T10:09:02.080Z,22.40
2018-05-07T10:11:29.963Z,22.50
2018-05-07T10:13:57.825Z,22.60
2018-05-07T10:16:25.696Z,22.70
2018-05-07T10:18:53.511Z,22.50
2018-05-07T10:21:21.545Z,22.50
2018-05-07T10:23:49.499Z,22.60
2018-05-07T10:26:17.377Z,22.50
2018-05-07T10:28:45.217Z,22.50
2018-05-07T10:31:13.156Z,22.70
2018-05-07T10:33:40.975Z,22.80
2018-05-07T10:36:08.794Z,22.80
2018-05-07T10:38:36.659Z,22.60
2018-05-07T10:45:40.222Z,22.80
2018-05-07T10:48:08.080Z,22.80
2018-05-07T10:50:36.677Z,22.90
2018-05-07T10:53:04.635Z,22.90
2018-05-07T10:55:32.548Z,23.00
2018-05-07T10:58:00.521Z,22.90
2018-05-07T11:00:28.420Z,22.90
2018-05-07T11:02:56.197Z,23.10
2018-05-07T11:05:24.037Z,23.20
2018-05-07T11:07:52.654Z,23.20
2018-05-07T11:10:21.288Z,23.30
2018-05-07T11:12:49.207Z,23.30
2018-05-07T11:15:17.841Z,23.30
2018-05-07T11:17:45.697Z,23.20
2018-05-07T11:20:13.539Z,23.40
2018-05-07T11:22:41.359Z,23.20
2018-05-07T11:25:09.954Z,23.40
2018-05-07T11:27:37.816Z,23.40
2018-05-07T11:30:06.806Z,23.30
2018-05-07T11:32:34.674Z,23.30
2018-05-07T11:35:02.577Z,23.50
2018-05-07T11:37:30.517Z,23.50
2018-05-07T11:39:59.291Z,23.60
2018-05-07T11:42:27.193Z,23.60
2018-05-07T11:44:55.046Z,23.60
2018-05-07T11:47:23.019Z,23.70
2018-05-07T11:49:50.737Z,23.90
2018-05-07T11:52:18.703Z,23.90
2018-05-07T11:54:46.517Z,23.90
2018-05-07T11:57:14.388Z,24.20
2018-05-07T11:59:42.351Z,23.90
2018-05-07T12:02:12.541Z,23.80
2018-05-07T12:04:40.352Z,23.80
2018-05-07T12:07:08.471Z,23.90
2018-05-07T12:09:51.459Z,23.90
2018-05-07T12:12:19.328Z,24.00
2018-05-07T12:14:47.256Z,24.10
2018-05-07T12:17:16.363Z,24.50
2018-05-07T12:19:44.289Z,24.50
2018-05-07T12:22:12.130Z,24.60
2018-05-07T12:24:40.945Z,24.90
2018-05-07T12:27:08.785Z,24.90
2018-05-07T12:29:36.630Z,25.10
2018-05-07T12:32:05.241Z,25.00
2018-05-07T12:34:33.236Z,24.90
2018-05-07T12:37:01.069Z,25.10
2018-05-07T12:39:28.898Z,25.20
2018-05-07T12:41:57.501Z,25.20
2018-05-07T12:44:25.348Z,25.20
2018-05-07T12:46:54.147Z,25.30
2018-05-07T12:55:46.705Z,25.50
2018-05-07T12:58:15.504Z,24.90
2018-05-07T13:00:43.305Z,24.90
2018-05-07T13:03:11.565Z,25.10
2018-05-07T13:05:40.202Z,26.10
2018-05-07T13:08:08.532Z,26.00
2018-05-07T13:10:36.958Z,26.00
2018-05-07T13:15:46.386Z,26.60
2018-05-07T13:18:14.299Z,27.10
2018-05-07T13:20:42.925Z,28.10
2018-05-07T13:23:10.793Z,28.10
2018-05-07T13:25:38.630Z,28.20
2018-05-07T13:28:07.291Z,29.80
2018-05-07T13:30:35.183Z,29.80
2018-05-07T13:33:03.794Z,30.90
2018-05-07T13:35:31.712Z,30.80
2018-05-07T13:37:59.540Z,30.00
2018-05-07T13:40:27.373Z,32.40
2018-05-07T13:42:55.980Z,31.80
2018-05-07T13:45:23.896Z,31.80
2018-05-07T13:47:51.859Z,33.60
2018-05-07T13:50:19.692Z,34.90
2018-05-07T13:52:47.606Z,35.60
2018-05-07T13:57:58.336Z,33.80
2018-05-07T14:00:26.181Z,34.60
2018-05-07T14:02:54.152Z,36.00
2018-05-07T14:05:24.681Z,34.10
2018-05-07T14:07:53.429Z,32.60
2018-05-07T14:10:21.261Z,32.50
2018-05-07T14:12:49.218Z,31.90
2018-05-07T14:15:17.070Z,33.70
2018-05-07T14:17:45.681Z,31.50
2018-05-07T14:20:13.520Z,31.40
2018-05-07T14:22:42.107Z,31.60
2018-05-07T14:25:10.704Z,31.30
2018-05-07T14:27:38.541Z,31.20
2018-05-07T14:30:06.355Z,30.40
2018-05-07T14:32:34.176Z,31.20
2018-05-07T14:35:02.787Z,35.30
2018-05-07T14:37:31.392Z,35.90
2018-05-07T14:39:59.228Z,35.80
2018-05-07T14:52:04.942Z,32.70
2018-05-07T14:54:32.801Z,32.10
2018-05-07T14:57:01.406Z,30.40
2018-05-07T14:59:29.272Z,30.30
2018-05-07T15:01:57.102Z,28.90
2018-05-07T15:04:25.100Z,27.40
2018-05-07T15:06:54.328Z,27.60
2018-05-07T15:09:22.142Z,27.60
2018-05-07T15:11:50.751Z,27.60
2018-05-07T15:14:23.478Z,27.60
2018-05-07T15:16:51.399Z,27.30
2018-05-07T15:19:19.243Z,28.50
2018-05-07T15:21:47.067Z,28.90
2018-05-07T15:24:15.068Z,28.70
2018-05-07T15:26:43.728Z,28.00
2018-05-07T15:29:11.581Z,28.00
2018-05-07T15:31:39.610Z,27.80
2018-05-07T15:34:08.270Z,27.40
2018-05-07T15:36:36.106Z,27.40
2018-05-07T15:46:04.288Z,28.50
2018-05-07T15:48:33.040Z,27.40
2018-05-07T15:51:00.886Z,27.40
2018-05-07T15:53:28.760Z,27.60
2018-05-07T15:55:56.629Z,28.70
2018-05-07T15:58:25.271Z,29.30
2018-05-07T16:00:53.248Z,29.30
2018-05-07T16:03:21.872Z,29.80
2018-05-07T16:05:49.675Z,29.80
2018-05-07T16:08:17.509Z,28.70
2018-05-07T16:10:45.348Z,28.00
2018-05-07T16:13:13.188Z,28.50
2018-05-07T16:15:41.853Z,28.10
2018-05-07T16:18:10.452Z,28.90
2018-05-07T16:20:39.079Z,29.50
2018-05-07T16:23:06.911Z,29.40
2018-05-07T16:25:34.743Z,29.50
2018-05-07T16:28:02.661Z,28.10
2018-05-07T16:30:30.439Z,28.20
2018-05-07T16:32:58.277Z,28.00
2018-05-07T16:35:26.191Z,27.20
2018-05-07T16:37:54.195Z,27.30
2018-05-07T16:40:22.976Z,27.80
2018-05-07T16:42:51.615Z,28.10
2018-05-07T16:45:19.370Z,28.10
2018-05-07T16:47:47.211Z,27.60
2018-05-07T16:50:15.825Z,27.10
2018-05-07T16:52:43.720Z,27.10
2018-05-07T16:55:11.584Z,26.70
2018-05-07T16:57:39.420Z,26.90
2018-05-07T17:00:07.259Z,26.50
2018-05-07T17:02:35.105Z,26.30
2018-05-07T17:05:03.734Z,25.90
2018-05-07T17:11:07.174Z,25.20
2018-05-07T17:13:34.981Z,25.40
2018-05-07T17:16:03.587Z,24.90
2018-05-07T17:18:31.449Z,24.90
2018-05-07T17:23:41.627Z,24.60
2018-05-07T17:26:09.489Z,24.60
2018-05-07T17:28:37.323Z,24.70
2018-05-07T17:31:05.184Z,24.60
2018-05-07T17:33:33.208Z,24.60
2018-05-07T17:36:02.068Z,24.50
2018-05-07T17:38:30.564Z,24.30
2018-05-07T17:40:59.156Z,24.20
2018-05-07T17:43:26.992Z,24.20
2018-05-07T17:46:01.580Z,23.90
2018-05-07T17:48:35.313Z,23.90
2018-05-07T17:51:03.182Z,24.00
2018-05-07T17:53:30.996Z,23.60
2018-05-07T17:55:59.035Z,23.50
2018-05-07T17:58:26.931Z,23.30
2018-05-07T18:00:54.795Z,23.40
2018-05-07T18:03:22.717Z,23.30
2018-05-07T18:05:50.585Z,23.20
2018-05-07T18:08:18.427Z,23.00
2018-05-07T18:10:46.418Z,23.00
2018-05-07T18:13:15.412Z,23.00
2018-05-07T18:15:43.258Z,22.90
2018-05-07T18:18:11.119Z,22.90
2018-05-07T18:25:40.628Z,22.50
2018-05-07T18:28:08.448Z,22.50
2018-05-07T18:30:36.271Z,22.30
2018-05-07T18:35:46.359Z,22.20
2018-05-07T18:40:42.339Z,22.20
2018-05-07T18:43:10.195Z,22.10
2018-05-07T18:45:38.452Z,21.90
2018-05-07T18:48:06.280Z,22.00
2018-05-07T18:50:34.278Z,21.90
2018-05-07T18:53:02.164Z,21.80
2018-05-07T18:55:30.110Z,21.60
2018-05-07T18:57:57.999Z,21.50
2018-05-07T19:00:25.879Z,21.40
2018-05-07T19:02:53.679Z,21.40
2018-05-07T19:05:21.704Z,21.40
2018-05-07T19:07:49.540Z,21.30
2018-05-07T19:10:17.371Z,21.20
2018-05-07T19:12:48.367Z,21.10
2018-05-07T19:15:16.371Z,21.10
2018-05-07T19:17:45.205Z,20.90
2018-05-07T19:20:13.036Z,20.90
2018-05-07T19:22:40.942Z,20.90
2018-05-07T19:25:08.855Z,20.80
2018-05-07T19:27:37.455Z,20.70
2018-05-07T19:30:06.040Z,20.70
2018-05-07T19:32:33.876Z,20.70
2018-05-07T19:35:02.884Z,20.60
2018-05-07T19:37:30.822Z,20.60
2018-05-07T19:39:58.676Z,20.50
2018-05-07T19:42:26.636Z,20.50
2018-05-07T19:44:54.474Z,20.50
2018-05-07T19:47:22.329Z,20.40
2018-05-07T19:52:21.420Z,20.30
2018-05-07T19:54:49.318Z,20.10
2018-05-07T19:57:17.199Z,20.00
2018-05-07T19:59:45.107Z,19.90
2018-05-07T20:02:12.969Z,19.80
2018-05-07T20:04:40.796Z,19.60
2018-05-07T20:07:08.931Z,19.50
2018-05-07T20:09:37.538Z,19.50
2018-05-07T20:12:06.120Z,19.50
2018-05-07T20:14:34.723Z,19.30
2018-05-07T20:17:02.692Z,19.30
2018-05-07T20:19:30.525Z,19.30
2018-05-07T20:21:58.418Z,19.10
2018-05-07T20:24:26.960Z,19.00
2018-05-07T20:26:54.813Z,18.90
2018-05-07T20:29:22.679Z,18.80
2018-05-07T20:31:51.748Z,18.70
2018-05-07T20:34:19.787Z,18.60
2018-05-07T20:36:48.523Z,18.50
2018-05-07T20:39:17.280Z,18.40
2018-05-07T20:41:45.928Z,18.30
2018-05-07T20:50:30.786Z,17.90
2018-05-07T20:52:58.669Z,17.80
2018-05-07T20:55:26.487Z,17.60
2018-05-07T20:57:54.337Z,17.50
2018-05-07T21:00:22.613Z,17.20
2018-05-07T21:02:53.215Z,17.20
2018-05-07T21:05:21.136Z,17.20
2018-05-07T21:17:00.889Z,16.80
2018-05-07T21:19:28.856Z,16.70
2018-05-07T21:21:57.495Z,16.70
2018-05-07T21:24:26.083Z,16.60
2018-05-07T21:26:54.692Z,16.50
2018-05-07T21:29:22.499Z,16.50
2018-05-07T21:31:51.229Z,16.40
2018-05-07T21:34:19.186Z,16.40
2018-05-07T21:40:32.420Z,16.00
2018-05-07T21:43:00.992Z,16.10
2018-05-07T21:45:29.691Z,16.00
2018-05-07T21:47:57.499Z,16.00
2018-05-07T21:50:25.533Z,16.00
2018-05-07T22:02:04.433Z,16.00
2018-05-07T22:04:32.327Z,16.00
2018-05-07T22:07:00.247Z,16.00
2018-05-07T22:09:29.162Z,15.90
2018-05-07T22:11:57.446Z,15.90
2018-05-07T22:14:25.338Z,15.90
2018-05-07T22:16:53.990Z,16.00
2018-05-07T22:19:22.596Z,16.00
2018-05-07T22:21:51.846Z,16.00
2018-05-07T22:24:19.772Z,15.80
2018-05-07T22:26:47.608Z,15.90
2018-05-07T22:29:15.474Z,15.90
2018-05-07T22:31:43.344Z,15.90
2018-05-07T22:34:11.980Z,15.90
2018-05-07T22:36:39.817Z,15.90
2018-05-07T22:39:07.713Z,15.70
2018-05-07T22:41:35.526Z,15.70
2018-05-07T22:44:04.115Z,16.00
2018-05-07T22:46:31.953Z,15.90
2018-05-07T22:51:42.652Z,16.70
2018-05-07T22:54:10.496Z,16.80
2018-05-07T22:56:53.790Z,16.80
2018-05-07T22:59:21.600Z,16.80
2018-05-07T23:01:49.404Z,16.70
2018-05-07T23:04:17.249Z,16.70
2018-05-07T23:06:45.891Z,16.60
2018-05-07T23:09:13.721Z,16.60
2018-05-07T23:11:41.566Z,16.50
2018-05-07T23:14:10.211Z,16.40
2018-05-07T23:16:38.183Z,16.30
2018-05-07T23:19:06.009Z,16.30
2018-05-07T23:21:33.847Z,16.20
2018-05-07T23:24:02.474Z,16.00
2018-05-07T23:26:30.352Z,15.90
2018-05-07T23:28:58.192Z,15.90
2018-05-07T23:31:26.013Z,15.80
2018-05-07T23:37:12.681Z,15.50
2018-05-07T23:39:40.516Z,15.50
2018-05-07T23:42:09.211Z,15.30
2018-05-07T23:44:37.090Z,15.20
2018-05-07T23:47:05.674Z,15.20
2018-05-07T23:49:34.329Z,14.90
2018-05-07T23:52:02.929Z,14.90
2018-05-07T23:54:31.527Z,14.90
2018-05-07T23:57:00.123Z,14.80
2018-05-07T23:59:28.003Z,14.80
